sensor_id;sensor_type;location;lat;lon;timestamp;pressure;altitude;pressure_sealevel;temperature
65272;BMP280;51868;48.812;8.198;2022-12-15T00:02:00;99225.25;;;-0.81
65272;BMP280;51868;48.812;8.198;2022-12-15T00:04:47;99229.09;;;-0.85
65272;BMP280;51868;48.812;8.198;2022-12-15T00:07:33;99231.97;;;-0.82
65272;BMP280;51868;48.812;8.198;2022-12-15T00:10:19;99227.97;;;-0.81
65272;BMP280;51868;48.812;8.198;2022-12-15T00:13:09;99231.41;;;-0.81
65272;BMP280;51868;48.812;8.198;2022-12-15T00:15:54;99229.25;;;-0.82
65272;BMP280;51868;48.812;8.198;2022-12-15T00:18:40;99233.41;;;-0.81
65272;BMP280;51868;48.812;8.198;2022-12-15T00:21:27;99236.28;;;-0.79
65272;BMP280;51868;48.812;8.198;2022-12-15T00:24:12;99235.16;;;-0.76
65272;BMP280;51868;48.812;8.198;2022-12-15T00:26:57;99246.22;;;-0.74
65272;BMP280;51868;48.812;8.198;2022-12-15T00:29:43;99242.94;;;-0.73
65272;BMP280;51868;48.812;8.198;2022-12-15T00:32:28;99245.69;;;-0.73
65272;BMP280;51868;48.812;8.198;2022-12-15T00:35:13;99253.13;;;-0.73
65272;BMP280;51868;48.812;8.198;2022-12-15T00:38:06;99254.72;;;-0.70
65272;BMP280;51868;48.812;8.198;2022-12-15T00:40:52;99263.63;;;-0.70
65272;BMP280;51868;48.812;8.198;2022-12-15T00:43:26;99254.56;;;-0.72
65272;BMP280;51868;48.812;8.198;2022-12-15T00:45:55;99254.22;;;-0.76
65272;BMP280;51868;48.812;8.198;2022-12-15T00:48:41;99266.44;;;-0.77
65272;BMP280;51868;48.812;8.198;2022-12-15T00:51:10;99265.13;;;-0.76
65272;BMP280;51868;48.812;8.198;2022-12-15T00:53:38;99256.81;;;-0.78
65272;BMP280;51868;48.812;8.198;2022-12-15T00:56:24;99252.81;;;-0.77
65272;BMP280;51868;48.812;8.198;2022-12-15T00:59:09;99250.63;;;-0.79
65272;BMP280;51868;48.812;8.198;2022-12-15T01:01:55;99259.22;;;-0.82
65272;BMP280;51868;48.812;8.198;2022-12-15T01:04:40;99263.03;;;-0.86
65272;BMP280;51868;48.812;8.198;2022-12-15T01:07:26;99266.66;;;-0.83
65272;BMP280;51868;48.812;8.198;2022-12-15T01:10:17;99271.53;;;-0.81
65272;BMP280;51868;48.812;8.198;2022-12-15T01:13:02;99269.41;;;-0.83
65272;BMP280;51868;48.812;8.198;2022-12-15T01:15:48;99269.53;;;-0.81
65272;BMP280;51868;48.812;8.198;2022-12-15T01:18:33;99277.88;;;-0.79
65272;BMP280;51868;48.812;8.198;2022-12-15T01:21:19;99277.88;;;-0.79
65272;BMP280;51868;48.812;8.198;2022-12-15T01:23:50;99273.16;;;-0.78
65272;BMP280;51868;48.812;8.198;2022-12-15T01:26:19;99277.31;;;-0.77
65272;BMP280;51868;48.812;8.198;2022-12-15T01:28:47;99280.75;;;-0.77
65272;BMP280;51868;48.812;8.198;2022-12-15T01:31:14;99276.78;;;-0.76
65272;BMP280;51868;48.812;8.198;2022-12-15T01:33:42;99284.19;;;-0.76
65272;BMP280;51868;48.812;8.198;2022-12-15T01:36:10;99276.78;;;-0.76
65272;BMP280;51868;48.812;8.198;2022-12-15T01:38:38;99280.22;;;-0.75
65272;BMP280;51868;48.812;8.198;2022-12-15T01:41:08;99291.44;;;-0.71
65272;BMP280;51868;48.812;8.198;2022-12-15T01:43:38;99281.81;;;-0.72
65272;BMP280;51868;48.812;8.198;2022-12-15T01:46:08;99285.09;;;-0.74
65272;BMP280;51868;48.812;8.198;2022-12-15T01:48:41;99277.47;;;-0.75
65272;BMP280;51868;48.812;8.198;2022-12-15T01:51:18;99280.94;;;-0.75
65272;BMP280;51868;48.812;8.198;2022-12-15T01:53:50;99289.81;;;-0.74
65272;BMP280;51868;48.812;8.198;2022-12-15T01:56:21;99285.66;;;-0.75
65272;BMP280;51868;48.812;8.198;2022-12-15T01:58:53;99287.66;;;-0.76
65272;BMP280;51868;48.812;8.198;2022-12-15T02:01:21;99298.94;;;-0.79
65272;BMP280;51868;48.812;8.198;2022-12-15T02:03:50;99297.81;;;-0.76
65272;BMP280;51868;48.812;8.198;2022-12-15T02:06:20;99296.72;;;-0.73
65272;BMP280;51868;48.812;8.198;2022-12-15T02:08:49;99299.59;;;-0.71
65272;BMP280;51868;48.812;8.198;2022-12-15T02:11:32;99297.03;;;-0.69
65272;BMP280;51868;48.812;8.198;2022-12-15T02:14:05;99305.78;;;-0.71
65272;BMP280;51868;48.812;8.198;2022-12-15T02:16:45;99309.94;;;-0.70
65272;BMP280;51868;48.812;8.198;2022-12-15T02:19:41;99305.78;;;-0.71
65272;BMP280;51868;48.812;8.198;2022-12-15T02:22:21;99310.34;;;-0.73
65272;BMP280;51868;48.812;8.198;2022-12-15T02:25:09;99318.69;;;-0.71
65272;BMP280;51868;48.812;8.198;2022-12-15T02:27:49;99326.84;;;-0.71
65272;BMP280;51868;48.812;8.198;2022-12-15T02:30:24;99324.28;;;-0.69
65272;BMP280;51868;48.812;8.198;2022-12-15T02:33:04;99317.56;;;-0.68
65272;BMP280;51868;48.812;8.198;2022-12-15T02:35:43;99319.72;;;-0.67
65272;BMP280;51868;48.812;8.198;2022-12-15T02:38:12;99310.97;;;-0.65
65272;BMP280;51868;48.812;8.198;2022-12-15T02:40:40;99308.25;;;-0.65
65272;BMP280;51868;48.812;8.198;2022-12-15T02:43:08;99313.69;;;-0.65
65272;BMP280;51868;48.812;8.198;2022-12-15T02:45:45;99317.00;;;-0.67
65272;BMP280;51868;48.812;8.198;2022-12-15T02:48:24;99307.38;;;-0.68
65272;BMP280;51868;48.812;8.198;2022-12-15T02:51:07;99312.97;;;-0.66
65272;BMP280;51868;48.812;8.198;2022-12-15T02:53:52;99312.81;;;-0.68
65272;BMP280;51868;48.812;8.198;2022-12-15T02:56:25;99315.00;;;-0.66
65272;BMP280;51868;48.812;8.198;2022-12-15T02:59:05;99313.69;;;-0.65
65272;BMP280;51868;48.812;8.198;2022-12-15T03:01:40;99328.78;;;-0.64
65272;BMP280;51868;48.812;8.198;2022-12-15T03:04:10;99321.31;;;-0.64
65272;BMP280;51868;48.812;8.198;2022-12-15T03:06:38;99332.94;;;-0.63
65272;BMP280;51868;48.812;8.198;2022-12-15T03:09:06;99322.03;;;-0.63
65272;BMP280;51868;48.812;8.198;2022-12-15T03:11:34;99319.16;;;-0.65
65272;BMP280;51868;48.812;8.198;2022-12-15T03:14:02;99317.72;;;-0.66
65272;BMP280;51868;48.812;8.198;2022-12-15T03:16:30;99312.25;;;-0.66
65272;BMP280;51868;48.812;8.198;2022-12-15T03:18:59;99309.38;;;-0.68
65272;BMP280;51868;48.812;8.198;2022-12-15T03:21:27;99331.16;;;-0.68
65272;BMP280;51868;48.812;8.198;2022-12-15T03:23:55;99327.16;;;-0.67
65272;BMP280;51868;48.812;8.198;2022-12-15T03:26:22;99325.19;;;-0.67
65272;BMP280;51868;48.812;8.198;2022-12-15T03:28:53;99334.06;;;-0.66
65272;BMP280;51868;48.812;8.198;2022-12-15T03:31:20;99342.41;;;-0.64
65272;BMP280;51868;48.812;8.198;2022-12-15T03:33:48;99332.94;;;-0.63
65272;BMP280;51868;48.812;8.198;2022-12-15T03:36:17;99335.66;;;-0.63
65272;BMP280;51868;48.812;8.198;2022-12-15T03:38:45;99342.41;;;-0.64
65272;BMP280;51868;48.812;8.198;2022-12-15T03:41:13;99343.66;;;-0.65
65272;BMP280;51868;48.812;8.198;2022-12-15T03:43:43;99342.22;;;-0.66
65272;BMP280;51868;48.812;8.198;2022-12-15T03:46:15;99348.41;;;-0.66
65272;BMP280;51868;48.812;8.198;2022-12-15T03:48:43;99353.84;;;-0.66
65272;BMP280;51868;48.812;8.198;2022-12-15T03:51:11;99356.97;;;-0.69
65272;BMP280;51868;48.812;8.198;2022-12-15T03:53:41;99356.97;;;-0.69
65272;BMP280;51868;48.812;8.198;2022-12-15T03:56:09;99354.97;;;-0.69
65272;BMP280;51868;48.812;8.198;2022-12-15T03:58:37;99354.25;;;-0.69
65272;BMP280;51868;48.812;8.198;2022-12-15T04:01:17;99347.00;;;-0.74
65272;BMP280;51868;48.812;8.198;2022-12-15T04:03:46;99346.47;;;-0.73
65272;BMP280;51868;48.812;8.198;2022-12-15T04:06:14;99335.41;;;-0.75
65272;BMP280;51868;48.812;8.198;2022-12-15T04:08:43;99330.13;;;-0.73
65272;BMP280;51868;48.812;8.198;2022-12-15T04:11:15;99334.69;;;-0.75
65272;BMP280;51868;48.812;8.198;2022-12-15T04:13:43;99333.97;;;-0.76
65272;BMP280;51868;48.812;8.198;2022-12-15T04:16:11;99336.53;;;-0.78
65272;BMP280;51868;48.812;8.198;2022-12-15T04:18:46;99345.09;;;-0.81
65272;BMP280;51868;48.812;8.198;2022-12-15T04:21:33;99347.09;;;-0.82
65272;BMP280;51868;48.812;8.198;2022-12-15T04:24:01;99351.66;;;-0.85
65272;BMP280;51868;48.812;8.198;2022-12-15T04:26:47;99348.75;;;-0.87
65272;BMP280;51868;48.812;8.198;2022-12-15T04:29:32;99353.50;;;-0.87
65272;BMP280;51868;48.812;8.198;2022-12-15T04:32:17;99353.50;;;-0.87
65272;BMP280;51868;48.812;8.198;2022-12-15T04:35:03;99363.97;;;-0.84
65272;BMP280;51868;48.812;8.198;2022-12-15T04:37:48;99363.97;;;-0.84
65272;BMP280;51868;48.812;8.198;2022-12-15T04:40:35;99366.16;;;-0.82
65272;BMP280;51868;48.812;8.198;2022-12-15T04:43:20;99357.44;;;-0.80
65272;BMP280;51868;48.812;8.198;2022-12-15T04:46:06;99357.44;;;-0.80
65272;BMP280;51868;48.812;8.198;2022-12-15T04:48:51;99347.09;;;-0.82
65272;BMP280;51868;48.812;8.198;2022-12-15T04:51:36;99352.53;;;-0.82
65272;BMP280;51868;48.812;8.198;2022-12-15T04:54:21;99357.09;;;-0.85
65272;BMP280;51868;48.812;8.198;2022-12-15T04:57:08;99370.00;;;-0.85
65272;BMP280;51868;48.812;8.198;2022-12-15T05:00:08;99374.88;;;-0.84
65272;BMP280;51868;48.812;8.198;2022-12-15T05:02:54;99374.16;;;-0.84
65272;BMP280;51868;48.812;8.198;2022-12-15T05:05:43;99380.31;;;-0.84
65272;BMP280;51868;48.812;8.198;2022-12-15T05:08:29;99378.47;;;-0.81
65272;BMP280;51868;48.812;8.198;2022-12-15T05:11:15;99372.31;;;-0.81
65272;BMP280;51868;48.812;8.198;2022-12-15T05:14:02;99373.78;;;-0.80
65272;BMP280;51868;48.812;8.198;2022-12-15T05:16:47;99361.44;;;-0.81
65272;BMP280;51868;48.812;8.198;2022-12-15T05:19:33;99361.59;;;-0.79
65272;BMP280;51868;48.812;8.198;2022-12-15T05:22:18;99361.59;;;-0.79
65272;BMP280;51868;48.812;8.198;2022-12-15T05:25:04;99352.53;;;-0.82
65272;BMP280;51868;48.812;8.198;2022-12-15T05:27:49;99356.69;;;-0.81
65272;BMP280;51868;48.812;8.198;2022-12-15T05:30:36;99352.69;;;-0.80
65272;BMP280;51868;48.812;8.198;2022-12-15T05:33:21;99348.53;;;-0.81
65272;BMP280;51868;48.812;8.198;2022-12-15T05:35:49;99356.69;;;-0.81
65272;BMP280;51868;48.812;8.198;2022-12-15T05:38:17;99353.09;;;-0.84
65272;BMP280;51868;48.812;8.198;2022-12-15T05:40:44;99363.44;;;-0.82
65272;BMP280;51868;48.812;8.198;2022-12-15T05:43:12;99373.03;;;-0.81
65272;BMP280;51868;48.812;8.198;2022-12-15T05:45:41;99363.59;;;-0.80
65272;BMP280;51868;48.812;8.198;2022-12-15T05:48:09;99365.59;;;-0.80
65272;BMP280;51868;48.812;8.198;2022-12-15T05:50:38;99348.53;;;-0.81
65272;BMP280;51868;48.812;8.198;2022-12-15T05:53:05;99345.09;;;-0.81
65272;BMP280;51868;48.812;8.198;2022-12-15T05:55:35;99358.69;;;-0.81
65272;BMP280;51868;48.812;8.198;2022-12-15T05:58:03;99372.91;;;-0.83
65272;BMP280;51868;48.812;8.198;2022-12-15T06:00:31;99380.31;;;-0.84
65272;BMP280;51868;48.812;8.198;2022-12-15T06:03:00;99377.06;;;-0.82
65272;BMP280;51868;48.812;8.198;2022-12-15T06:05:28;99375.03;;;-0.81
65272;BMP280;51868;48.812;8.198;2022-12-15T06:07:58;99381.38;;;-0.79
65272;BMP280;51868;48.812;8.198;2022-12-15T06:10:26;99387.56;;;-0.78
65272;BMP280;51868;48.812;8.198;2022-12-15T06:12:54;99384.84;;;-0.78
65272;BMP280;51868;48.812;8.198;2022-12-15T06:15:22;99383.56;;;-0.77
65272;BMP280;51868;48.812;8.198;2022-12-15T06:17:50;99386.09;;;-0.79
65272;BMP280;51868;48.812;8.198;2022-12-15T06:20:22;99386.09;;;-0.79
65272;BMP280;51868;48.812;8.198;2022-12-15T06:22:50;99382.84;;;-0.78
65272;BMP280;51868;48.812;8.198;2022-12-15T06:25:18;99387.56;;;-0.78
65272;BMP280;51868;48.812;8.198;2022-12-15T06:27:46;99384.28;;;-0.77
65272;BMP280;51868;48.812;8.198;2022-12-15T06:30:14;99389.16;;;-0.75
65272;BMP280;51868;48.812;8.198;2022-12-15T06:32:42;99385.72;;;-0.76
65272;BMP280;51868;48.812;8.198;2022-12-15T06:35:17;99383.16;;;-0.74
65272;BMP280;51868;48.812;8.198;2022-12-15T06:37:50;99390.06;;;-0.73
65272;BMP280;51868;48.812;8.198;2022-12-15T06:40:18;99385.31;;;-0.72
65272;BMP280;51868;48.812;8.198;2022-12-15T06:42:46;99382.59;;;-0.72
65272;BMP280;51868;48.812;8.198;2022-12-15T06:45:15;99375.16;;;-0.72
65272;BMP280;51868;48.812;8.198;2022-12-15T06:47:43;99371.00;;;-0.73
65272;BMP280;51868;48.812;8.198;2022-12-15T06:50:11;99371.88;;;-0.70
65272;BMP280;51868;48.812;8.198;2022-12-15T06:52:39;99382.03;;;-0.71
65272;BMP280;51868;48.812;8.198;2022-12-15T06:55:08;99367.53;;;-0.73
65272;BMP280;51868;48.812;8.198;2022-12-15T06:57:38;99377.88;;;-0.72
65272;BMP280;51868;48.812;8.198;2022-12-15T07:00:10;99370.44;;;-0.71
65272;BMP280;51868;48.812;8.198;2022-12-15T07:02:40;99359.72;;;-0.69
65272;BMP280;51868;48.812;8.198;2022-12-15T07:05:18;99374.59;;;-0.70
65272;BMP280;51868;48.812;8.198;2022-12-15T07:07:45;99366.41;;;-0.70
65272;BMP280;51868;48.812;8.198;2022-12-15T07:10:16;99360.97;;;-0.70
65272;BMP280;51868;48.812;8.198;2022-12-15T07:12:45;99354.09;;;-0.71
65272;BMP280;51868;48.812;8.198;2022-12-15T07:15:16;99355.19;;;-0.74
65272;BMP280;51868;48.812;8.198;2022-12-15T07:17:44;99360.63;;;-0.74
65272;BMP280;51868;48.812;8.198;2022-12-15T07:20:12;99363.34;;;-0.74
65272;BMP280;51868;48.812;8.198;2022-12-15T07:22:43;99372.28;;;-0.74
65272;BMP280;51868;48.812;8.198;2022-12-15T07:25:18;99373.00;;;-0.73
65272;BMP280;51868;48.812;8.198;2022-12-15T07:27:51;99383.88;;;-0.73
65272;BMP280;51868;48.812;8.198;2022-12-15T07:30:18;99384.06;;;-0.71
65272;BMP280;51868;48.812;8.198;2022-12-15T07:32:46;99396.38;;;-0.70
65272;BMP280;51868;48.812;8.198;2022-12-15T07:35:15;99395.66;;;-0.71
65272;BMP280;51868;48.812;8.198;2022-12-15T07:37:46;99389.50;;;-0.71
65272;BMP280;51868;48.812;8.198;2022-12-15T07:40:14;99397.09;;;-0.70
65272;BMP280;51868;48.812;8.198;2022-12-15T07:42:44;99397.84;;;-0.69
65272;BMP280;51868;48.812;8.198;2022-12-15T07:45:12;99403.28;;;-0.69
65272;BMP280;51868;48.812;8.198;2022-12-15T07:47:40;99408.88;;;-0.67
65272;BMP280;51868;48.812;8.198;2022-12-15T07:50:08;99420.69;;;-0.65
65272;BMP280;51868;48.812;8.198;2022-12-15T07:52:36;99415.38;;;-0.63
65272;BMP280;51868;48.812;8.198;2022-12-15T07:55:05;99418.13;;;-0.63
65272;BMP280;51868;48.812;8.198;2022-12-15T07:57:33;99419.41;;;-0.64
65272;BMP280;51868;48.812;8.198;2022-12-15T08:00:03;99421.41;;;-0.64
65272;BMP280;51868;48.812;8.198;2022-12-15T08:02:32;99413.97;;;-0.64
65272;BMP280;51868;48.812;8.198;2022-12-15T08:05:00;99418.13;;;-0.63
65272;BMP280;51868;48.812;8.198;2022-12-15T08:07:28;99417.56;;;-0.61
65272;BMP280;51868;48.812;8.198;2022-12-15T08:09:55;99421.59;;;-0.62
65272;BMP280;51868;48.812;8.198;2022-12-15T08:12:26;99424.84;;;-0.64
65272;BMP280;51868;48.812;8.198;2022-12-15T08:14:54;99422.84;;;-0.63
65272;BMP280;51868;48.812;8.198;2022-12-15T08:17:25;99414.13;;;-0.61
65272;BMP280;51868;48.812;8.198;2022-12-15T08:19:53;99433.03;;;-0.64
65272;BMP280;51868;48.812;8.198;2022-12-15T08:22:24;99435.03;;;-0.64
65272;BMP280;51868;48.812;8.198;2022-12-15T08:24:53;99433.19;;;-0.61
65272;BMP280;51868;48.812;8.198;2022-12-15T08:27:22;99446.28;;;-0.60
65272;BMP280;51868;48.812;8.198;2022-12-15T08:29:52;99442.25;;;-0.59
65272;BMP280;51868;48.812;8.198;2022-12-15T08:32:21;99462.94;;;-0.56
65272;BMP280;51868;48.812;8.198;2022-12-15T08:34:50;99454.94;;;-0.54
65272;BMP280;51868;48.812;8.198;2022-12-15T08:37:18;99456.38;;;-0.53
65272;BMP280;51868;48.812;8.198;2022-12-15T08:39:51;99458.38;;;-0.53
65272;BMP280;51868;48.812;8.198;2022-12-15T08:42:18;99458.94;;;-0.55
65272;BMP280;51868;48.812;8.198;2022-12-15T08:44:47;99456.22;;;-0.55
65272;BMP280;51868;48.812;8.198;2022-12-15T08:47:15;99444.75;;;-0.53
65272;BMP280;51868;48.812;8.198;2022-12-15T08:49:43;99436.03;;;-0.52
65272;BMP280;51868;48.812;8.198;2022-12-15T08:52:12;99435.63;;;-0.48
65272;BMP280;51868;48.812;8.198;2022-12-15T08:54:48;99440.53;;;-0.47
65272;BMP280;51868;48.812;8.198;2022-12-15T08:57:15;99441.25;;;-0.46
65272;BMP280;51868;48.812;8.198;2022-12-15T08:59:43;99441.81;;;-0.48
65272;BMP280;51868;48.812;8.198;2022-12-15T09:02:27;99442.34;;;-0.49
65272;BMP280;51868;48.812;8.198;2022-12-15T09:05:11;99448.53;;;-0.49
65272;BMP280;51868;48.812;8.198;2022-12-15T09:07:40;99447.81;;;-0.49
65272;BMP280;51868;48.812;8.198;2022-12-15T09:10:08;99446.38;;;-0.50
65272;BMP280;51868;48.812;8.198;2022-12-15T09:12:36;99448.69;;;-0.47
65272;BMP280;51868;48.812;8.198;2022-12-15T09:15:05;99451.22;;;-0.41
65272;BMP280;51868;48.812;8.198;2022-12-15T09:17:32;99453.34;;;-0.39
65272;BMP280;51868;48.812;8.198;2022-12-15T09:20:00;99457.00;;;-0.37
65272;BMP280;51868;48.812;8.198;2022-12-15T09:22:30;99450.97;;;-0.35
65272;BMP280;51868;48.812;8.198;2022-12-15T09:25:00;99448.41;;;-0.33
65272;BMP280;51868;48.812;8.198;2022-12-15T09:27:30;99450.41;;;-0.34
65272;BMP280;51868;48.812;8.198;2022-12-15T09:29:58;99452.63;;;-0.32
65272;BMP280;51868;48.812;8.198;2022-12-15T09:32:27;99449.31;;;-0.31
65272;BMP280;51868;48.812;8.198;2022-12-15T09:34:54;99458.38;;;-0.28
65272;BMP280;51868;48.812;8.198;2022-12-15T09:37:22;99460.00;;;-0.25
65272;BMP280;51868;48.812;8.198;2022-12-15T09:39:50;99452.72;;;-0.23
65272;BMP280;51868;48.812;8.198;2022-12-15T09:42:25;99447.97;;;-0.22
65272;BMP280;51868;48.812;8.198;2022-12-15T09:45:00;99452.56;;;-0.25
65272;BMP280;51868;48.812;8.198;2022-12-15T09:48:46;99467.06;;;-0.22
65272;BMP280;51868;48.812;8.198;2022-12-15T09:51:16;99468.19;;;-0.25
65272;BMP280;51868;48.812;8.198;2022-12-15T09:53:45;99454.38;;;-0.27
65272;BMP280;51868;48.812;8.198;2022-12-15T09:56:26;99455.81;;;-0.26
65272;BMP280;51868;48.812;8.198;2022-12-15T09:59:02;99446.94;;;-0.27
65272;BMP280;51868;48.812;8.198;2022-12-15T10:01:36;99447.81;;;-0.24
65272;BMP280;51868;48.812;8.198;2022-12-15T10:04:09;99427.75;;;-0.19
65272;BMP280;51868;48.812;8.198;2022-12-15T10:06:45;99430.81;;;-0.15
65272;BMP280;51868;48.812;8.198;2022-12-15T10:09:18;99435.31;;;-0.10
65272;BMP280;51868;48.812;8.198;2022-12-15T10:11:50;99450.56;;;-0.07
65272;BMP280;51868;48.812;8.198;2022-12-15T10:14:27;99443.28;;;-0.04
65272;BMP280;51868;48.812;8.198;2022-12-15T10:17:04;99431.56;;;0.03
65272;BMP280;51868;48.812;8.198;2022-12-15T10:19:38;99426.03;;;0.11
65272;BMP280;51868;48.812;8.198;2022-12-15T10:22:10;99418.47;;;0.19
65272;BMP280;51868;48.812;8.198;2022-12-15T10:24:41;99415.25;;;0.30
65272;BMP280;51868;48.812;8.198;2022-12-15T10:27:40;99410.56;;;0.40
65272;BMP280;51868;48.812;8.198;2022-12-15T10:30:12;99400.13;;;0.47
65272;BMP280;51868;48.812;8.198;2022-12-15T10:32:45;99395.84;;;0.53
65272;BMP280;51868;48.812;8.198;2022-12-15T10:35:20;99410.38;;;0.56
65272;BMP280;51868;48.812;8.198;2022-12-15T10:37:48;99413.97;;;0.58
65272;BMP280;51868;48.812;8.198;2022-12-15T10:40:19;99406.81;;;0.63
65272;BMP280;51868;48.812;8.198;2022-12-15T10:42:51;99395.63;;;0.69
65272;BMP280;51868;48.812;8.198;2022-12-15T10:45:34;99397.53;;;0.76
65272;BMP280;51868;48.812;8.198;2022-12-15T10:48:08;99396.44;;;0.79
65272;BMP280;51868;48.812;8.198;2022-12-15T10:50:44;99396.44;;;0.79
65272;BMP280;51868;48.812;8.198;2022-12-15T10:53:32;99388.06;;;0.77
65272;BMP280;51868;48.812;8.198;2022-12-15T10:56:06;99394.25;;;0.77
65272;BMP280;51868;48.812;8.198;2022-12-15T10:58:45;99389.78;;;0.72
65272;BMP280;51868;48.812;8.198;2022-12-15T11:01:26;99385.59;;;0.71
65272;BMP280;51868;48.812;8.198;2022-12-15T11:03:58;99381.13;;;0.66
65272;BMP280;51868;48.812;8.198;2022-12-15T11:06:29;99390.59;;;0.65
65272;BMP280;51868;48.812;8.198;2022-12-15T11:09:26;99388.28;;;0.61
65272;BMP280;51868;48.812;8.198;2022-12-15T11:11:57;99394.00;;;0.56
65272;BMP280;51868;48.812;8.198;2022-12-15T11:14:49;99388.22;;;0.52
65272;BMP280;51868;48.812;8.198;2022-12-15T11:17:23;99386.06;;;0.50
65272;BMP280;51868;48.812;8.198;2022-12-15T11:19:58;99372.97;;;0.49
65272;BMP280;51868;48.812;8.198;2022-12-15T11:22:55;99374.25;;;0.48
65272;BMP280;51868;48.812;8.198;2022-12-15T11:25:26;99365.91;;;0.46
65272;BMP280;51868;48.812;8.198;2022-12-15T11:27:59;99357.72;;;0.46
65272;BMP280;51868;48.812;8.198;2022-12-15T11:30:36;99344.06;;;0.46
65272;BMP280;51868;48.812;8.198;2022-12-15T11:33:19;99348.09;;;0.45
65272;BMP280;51868;48.812;8.198;2022-12-15T11:35:54;99345.53;;;0.47
65272;BMP280;51868;48.812;8.198;2022-12-15T11:38:30;99344.22;;;0.48
65272;BMP280;51868;48.812;8.198;2022-12-15T11:41:04;99337.50;;;0.49
65272;BMP280;51868;48.812;8.198;2022-12-15T11:43:57;99317.09;;;0.50
65272;BMP280;51868;48.812;8.198;2022-12-15T11:46:36;99296.69;;;0.51
65272;BMP280;51868;48.812;8.198;2022-12-15T11:49:27;99285.38;;;0.54
65272;BMP280;51868;48.812;8.198;2022-12-15T11:52:10;99290.41;;;0.58
65272;BMP280;51868;48.812;8.198;2022-12-15T11:54:43;99286.38;;;0.59
65272;BMP280;51868;48.812;8.198;2022-12-15T11:57:38;99278.19;;;0.59
65272;BMP280;51868;48.812;8.198;2022-12-15T12:00:12;99268.44;;;0.56
65272;BMP280;51868;48.812;8.198;2022-12-15T12:02:50;99269.72;;;0.55
65272;BMP280;51868;48.812;8.198;2022-12-15T12:05:34;99276.63;;;0.56
65272;BMP280;51868;48.812;8.198;2022-12-15T12:08:17;99269.31;;;0.58
65272;BMP280;51868;48.812;8.198;2022-12-15T12:10:56;99271.31;;;0.58
65272;BMP280;51868;48.812;8.198;2022-12-15T12:13:30;99282.94;;;0.58
65272;BMP280;51868;48.812;8.198;2022-12-15T12:16:13;99278.19;;;0.59
65272;BMP280;51868;48.812;8.198;2022-12-15T12:18:50;99270.88;;;0.61
65272;BMP280;51868;48.812;8.198;2022-12-15T12:21:25;99269.03;;;0.64
65272;BMP280;51868;48.812;8.198;2022-12-15T12:23:58;99278.66;;;0.65
65272;BMP280;51868;48.812;8.198;2022-12-15T12:26:34;99272.06;;;0.68
65272;BMP280;51868;48.812;8.198;2022-12-15T12:29:10;99267.63;;;0.73
65272;BMP280;51868;48.812;8.198;2022-12-15T12:31:45;99265.19;;;0.77
65272;BMP280;51868;48.812;8.198;2022-12-15T12:34:21;99256.41;;;0.78
65272;BMP280;51868;48.812;8.198;2022-12-15T12:36:51;99247.09;;;0.81
65272;BMP280;51868;48.812;8.198;2022-12-15T12:39:22;99230.28;;;0.85
65272;BMP280;51868;48.812;8.198;2022-12-15T12:42:02;99234.47;;;0.96
65272;BMP280;51868;48.812;8.198;2022-12-15T12:44:33;99222.69;;;1.03
65272;BMP280;51868;48.812;8.198;2022-12-15T12:47:07;99236.78;;;1.09
65272;BMP280;51868;48.812;8.198;2022-12-15T12:49:41;99240.25;;;1.19
65272;BMP280;51868;48.812;8.198;2022-12-15T12:52:19;99238.53;;;1.34
65272;BMP280;51868;48.812;8.198;2022-12-15T12:54:57;99231.88;;;1.46
65272;BMP280;51868;48.812;8.198;2022-12-15T12:57:33;99223.38;;;1.52
65272;BMP280;51868;48.812;8.198;2022-12-15T13:00:14;99212.03;;;1.56
65272;BMP280;51868;48.812;8.198;2022-12-15T13:02:53;99206.00;;;1.57
65272;BMP280;51868;48.812;8.198;2022-12-15T13:05:32;99200.22;;;1.53
65272;BMP280;51868;48.812;8.198;2022-12-15T13:11:59;99197.38;;;1.41
65272;BMP280;51868;48.812;8.198;2022-12-15T13:14:52;99200.38;;;1.36
65272;BMP280;51868;48.812;8.198;2022-12-15T13:17:29;99190.91;;;1.27
65272;BMP280;51868;48.812;8.198;2022-12-15T13:20:17;99189.19;;;1.22
65272;BMP280;51868;48.812;8.198;2022-12-15T13:22:46;99177.25;;;1.17
65272;BMP280;51868;48.812;8.198;2022-12-15T13:25:38;99187.78;;;1.11
65272;BMP280;51868;48.812;8.198;2022-12-15T13:28:25;99176.09;;;1.01
65272;BMP280;51868;48.812;8.198;2022-12-15T13:31:22;99177.97;;;0.98
65272;BMP280;51868;48.812;8.198;2022-12-15T13:34:00;99167.75;;;0.99
65272;BMP280;51868;48.812;8.198;2022-12-15T13:36:49;99169.34;;;1.02
65272;BMP280;51868;48.812;8.198;2022-12-15T13:39:33;99164.31;;;1.08
65272;BMP280;51868;48.812;8.198;2022-12-15T13:42:23;99168.91;;;1.15
65272;BMP280;51868;48.812;8.198;2022-12-15T13:45:33;99158.97;;;1.20
65272;BMP280;51868;48.812;8.198;2022-12-15T13:48:16;99164.03;;;1.23
65272;BMP280;51868;48.812;8.198;2022-12-15T13:50:48;99157.25;;;1.24
65272;BMP280;51868;48.812;8.198;2022-12-15T13:53:22;99164.31;;;1.18
65272;BMP280;51868;48.812;8.198;2022-12-15T13:55:57;99154.53;;;1.15
65272;BMP280;51868;48.812;8.198;2022-12-15T13:58:27;99155.84;;;1.14
65272;BMP280;51868;48.812;8.198;2022-12-15T14:00:59;99156.97;;;1.11
65272;BMP280;51868;48.812;8.198;2022-12-15T14:03:29;99175.69;;;1.04
65272;BMP280;51868;48.812;8.198;2022-12-15T14:05:58;99175.81;;;0.97
65272;BMP280;51868;48.812;8.198;2022-12-15T14:08:28;99174.69;;;0.90
65272;BMP280;51868;48.812;8.198;2022-12-15T14:10:58;99180.25;;;0.82
65272;BMP280;51868;48.812;8.198;2022-12-15T14:13:42;99188.03;;;0.76
65272;BMP280;51868;48.812;8.198;2022-12-15T14:16:19;99184.53;;;0.66
65272;BMP280;51868;48.812;8.198;2022-12-15T14:19:03;99197.03;;;0.59
65272;BMP280;51868;48.812;8.198;2022-12-15T14:21:31;99198.59;;;0.53
65272;BMP280;51868;48.812;8.198;2022-12-15T14:24:17;99197.41;;;0.46
65272;BMP280;51868;48.812;8.198;2022-12-15T14:27:07;99198.84;;;0.37
65272;BMP280;51868;48.812;8.198;2022-12-15T14:29:37;99209.44;;;0.33
65272;BMP280;51868;48.812;8.198;2022-12-15T14:32:08;99205.16;;;0.30
65272;BMP280;51868;48.812;8.198;2022-12-15T14:34:38;99209.72;;;0.28
65272;BMP280;51868;48.812;8.198;2022-12-15T14:37:09;99209.59;;;0.26
65272;BMP280;51868;48.812;8.198;2022-12-15T14:39:41;99204.00;;;0.24
65272;BMP280;51868;48.812;8.198;2022-12-15T14:42:17;99207.97;;;0.23
65272;BMP280;51868;48.812;8.198;2022-12-15T14:44:46;99208.25;;;0.17
65272;BMP280;51868;48.812;8.198;2022-12-15T14:47:36;99214.13;;;0.13
65272;BMP280;51868;48.812;8.198;2022-12-15T14:50:08;99215.25;;;0.10
65272;BMP280;51868;48.812;8.198;2022-12-15T14:52:39;99200.75;;;0.08
65272;BMP280;51868;48.812;8.198;2022-12-15T14:55:26;99210.78;;;0.05
65272;BMP280;51868;48.812;8.198;2022-12-15T14:57:58;99202.44;;;0.03
65272;BMP280;51868;48.812;8.198;2022-12-15T15:00:28;99209.78;;;0.01
65272;BMP280;51868;48.812;8.198;2022-12-15T15:03:17;99210.75;;;-0.05